Allensville, Ohio
Current Conditions -  °F | °C
As of 9:15 PM on Friday 28 Nov 2014 (Local Time) from KUNI Reporting Station
Clear Clear  
Wind Chill: 29°   Ceiling: Unl
Heat Index: 29°   Visibility: 10mi
Dew Point: 19°   Wind: 0mph
Humidity: 64%   Direction: NA
Pressure: 30.2"   Gusts: NA
Location:  39.2719°N, 82.4596°W
Report Text: KUNI 290215Z AUTO 00000KT 10SM CLR M01/M07 A3020 RMK AO2 T10151075
Loading
Personal Weather Stations






























Interactive Weather Map New forecast layout! Learn more

10-Day Weather Forecast

Advertisements
Track Severe Weather on mobile